LLM1375 USMU-USSS
Flight info
| Callsign | LLM1375 |
|---|---|
| Flight time | 1h 56m |
| Altitude | 36000 |
| Route | REMKI W77 LARTU R124 UNEKI T764 REPSA |
| Aircraft | A320/M-SDE3FGHIRWY/LB1 |
Departure
| Time | 2026-04-15 16:38 |
|---|---|
| Airport | Novy Urengoy Airport (USMU) |
Arrival
| Time | 2026-04-15 18:35 |
|---|---|
| Airport | Koltsovo Airport (USSS) |
| Time | Latitude | Longitude | Altitude | Speed | Heading |
|---|---|---|---|---|---|
| 2026-04-15 16:08 | 66.07169 | 76.52536 | 219 ft | 0 kts | 16° |
| 2026-04-15 16:30 | 66.07160 | 76.52529 | 219 ft | 2 kts | 16° |
| 2026-04-15 16:30 | 66.07144 | 76.52518 | 220 ft | 2 kts | 15° |
| 2026-04-15 16:30 | 66.07128 | 76.52507 | 218 ft | 2 kts | 16° |
| 2026-04-15 16:31 | 66.07112 | 76.52504 | 223 ft | 2 kts | 325° |
| 2026-04-15 16:31 | 66.07100 | 76.52533 | 219 ft | 2 kts | 297° |
| 2026-04-15 16:31 | 66.07096 | 76.52556 | 220 ft | 1 kts | 289° |
| 2026-04-15 16:31 | 66.07095 | 76.52558 | 220 ft | 0 kts | 289° |
| 2026-04-15 16:34 | 66.07101 | 76.52521 | 219 ft | 6 kts | 289° |
| 2026-04-15 16:34 | 66.07120 | 76.52372 | 218 ft | 12 kts | 288° |
| 2026-04-15 16:34 | 66.07130 | 76.52149 | 216 ft | 13 kts | 233° |
| 2026-04-15 16:34 | 66.07107 | 76.52116 | 216 ft | 0 kts | 200° |
| 2026-04-15 16:35 | 66.07084 | 76.52097 | 220 ft | 7 kts | 198° |
| 2026-04-15 16:35 | 66.07017 | 76.52037 | 216 ft | 13 kts | 213° |
| 2026-04-15 16:35 | 66.07019 | 76.51805 | 217 ft | 17 kts | 288° |
| 2026-04-15 16:35 | 66.07062 | 76.51486 | 218 ft | 22 kts | 287° |
| 2026-04-15 16:36 | 66.07114 | 76.51091 | 221 ft | 27 kts | 289° |
| 2026-04-15 16:36 | 66.07180 | 76.50613 | 214 ft | 31 kts | 287° |
| 2026-04-15 16:36 | 66.07238 | 76.50135 | 216 ft | 28 kts | 287° |
| 2026-04-15 16:36 | 66.07290 | 76.49699 | 218 ft | 23 kts | 287° |
| 2026-04-15 16:37 | 66.07350 | 76.49447 | 225 ft | 9 kts | 327° |
| 2026-04-15 16:37 | 66.07339 | 76.49338 | 220 ft | 12 kts | 164° |
| 2026-04-15 16:37 | 66.07327 | 76.49416 | 223 ft | 0 kts | 108° |
| 2026-04-15 16:38 | 66.07309 | 76.49554 | 221 ft | 39 kts | 107° |
| 2026-04-15 16:38 | 66.07134 | 76.50930 | 214 ft | 126 kts | 108° |
| 2026-04-15 16:38 | 66.06803 | 76.53514 | 437 ft | 175 kts | 103° |
| 2026-04-15 16:38 | 66.06367 | 76.56362 | 1484 ft | 184 kts | 117° |
| 2026-04-15 16:39 | 66.05363 | 76.58535 | 2152 ft | 212 kts | 156° |
| 2026-04-15 16:39 | 66.03815 | 76.58762 | 2356 ft | 241 kts | 200° |
| 2026-04-15 16:39 | 66.02380 | 76.56485 | 2879 ft | 252 kts | 229° |
| 2026-04-15 16:39 | 66.01219 | 76.53192 | 3728 ft | 258 kts | 236° |
| 2026-04-15 16:40 | 66.00091 | 76.49718 | 4655 ft | 262 kts | 235° |
| 2026-04-15 16:40 | 65.98951 | 76.46199 | 5582 ft | 265 kts | 235° |
| 2026-04-15 16:40 | 65.97768 | 76.42675 | 6495 ft | 270 kts | 230° |
| 2026-04-15 16:40 | 65.96398 | 76.39449 | 7354 ft | 275 kts | 224° |
| 2026-04-15 16:41 | 65.94918 | 76.36401 | 8191 ft | 280 kts | 222° |
| 2026-04-15 16:41 | 65.93386 | 76.33387 | 9030 ft | 285 kts | 221° |
| 2026-04-15 16:41 | 65.91825 | 76.30327 | 9866 ft | 289 kts | 222° |
| 2026-04-15 16:41 | 65.90271 | 76.27245 | 10581 ft | 296 kts | 223° |
| 2026-04-15 16:42 | 65.88596 | 76.23867 | 10831 ft | 320 kts | 223° |
| 2026-04-15 16:42 | 65.86864 | 76.20336 | 11265 ft | 334 kts | 223° |
| 2026-04-15 16:42 | 65.85070 | 76.16662 | 11954 ft | 339 kts | 223° |
| 2026-04-15 16:42 | 65.83246 | 76.12926 | 12677 ft | 344 kts | 223° |
| 2026-04-15 16:43 | 65.81394 | 76.09147 | 13391 ft | 349 kts | 223° |
| 2026-04-15 16:43 | 65.79517 | 76.05323 | 14094 ft | 354 kts | 223° |
| 2026-04-15 16:43 | 65.77613 | 76.01453 | 14728 ft | 358 kts | 223° |
| 2026-04-15 16:43 | 65.75687 | 75.97547 | 15345 ft | 362 kts | 223° |
| 2026-04-15 16:44 | 65.73739 | 75.93598 | 15970 ft | 366 kts | 224° |
| 2026-04-15 16:44 | 65.71770 | 75.89606 | 16598 ft | 370 kts | 224° |
| 2026-04-15 16:44 | 65.69756 | 75.85645 | 17219 ft | 375 kts | 222° |
| 2026-04-15 16:44 | 65.67660 | 75.81808 | 17824 ft | 380 kts | 220° |
| 2026-04-15 16:45 | 65.65501 | 75.78039 | 18431 ft | 384 kts | 219° |
| 2026-04-15 16:45 | 65.63303 | 75.74291 | 18969 ft | 388 kts | 219° |
| 2026-04-15 16:45 | 65.61084 | 75.70530 | 19504 ft | 391 kts | 219° |
| 2026-04-15 16:45 | 65.58842 | 75.66717 | 20040 ft | 395 kts | 219° |
| 2026-04-15 16:46 | 65.56593 | 75.62862 | 20574 ft | 398 kts | 220° |
| 2026-04-15 16:46 | 65.54333 | 75.58968 | 21098 ft | 401 kts | 220° |
| 2026-04-15 16:46 | 65.52057 | 75.55027 | 21638 ft | 404 kts | 220° |
| 2026-04-15 16:46 | 65.49764 | 75.51055 | 22179 ft | 408 kts | 220° |
| 2026-04-15 16:47 | 65.47451 | 75.47063 | 22692 ft | 411 kts | 220° |
| 2026-04-15 16:47 | 65.45143 | 75.43103 | 23201 ft | 414 kts | 220° |
| 2026-04-15 16:47 | 65.42750 | 75.39014 | 23708 ft | 418 kts | 220° |
| 2026-04-15 16:47 | 65.40400 | 75.35014 | 24121 ft | 421 kts | 220° |
| 2026-04-15 16:48 | 65.38002 | 75.30931 | 24511 ft | 424 kts | 220° |
| 2026-04-15 16:48 | 65.35588 | 75.26822 | 24905 ft | 427 kts | 220° |
| 2026-04-15 16:48 | 65.33159 | 75.22694 | 25275 ft | 430 kts | 220° |
| 2026-04-15 16:48 | 65.30710 | 75.18542 | 25650 ft | 433 kts | 220° |
| 2026-04-15 16:49 | 65.28242 | 75.14369 | 26015 ft | 436 kts | 220° |
| 2026-04-15 16:49 | 65.25752 | 75.10171 | 26379 ft | 439 kts | 220° |
| 2026-04-15 16:49 | 65.23248 | 75.05962 | 26727 ft | 441 kts | 220° |
| 2026-04-15 16:49 | 65.20730 | 75.01741 | 27069 ft | 444 kts | 220° |
| 2026-04-15 16:50 | 65.18191 | 74.97501 | 27410 ft | 447 kts | 220° |
| 2026-04-15 16:50 | 65.15638 | 74.93246 | 27756 ft | 449 kts | 220° |
| 2026-04-15 16:50 | 65.13065 | 74.88970 | 28088 ft | 452 kts | 220° |
| 2026-04-15 16:50 | 65.10478 | 74.84683 | 28421 ft | 455 kts | 220° |
| 2026-04-15 16:51 | 65.07875 | 74.80373 | 28743 ft | 457 kts | 220° |
| 2026-04-15 16:51 | 65.05259 | 74.76044 | 29066 ft | 460 kts | 220° |
| 2026-04-15 16:51 | 65.02629 | 74.71705 | 29376 ft | 462 kts | 220° |
| 2026-04-15 16:51 | 64.99983 | 74.67355 | 29682 ft | 464 kts | 220° |
| 2026-04-15 16:52 | 64.97323 | 74.62992 | 29983 ft | 467 kts | 220° |
| 2026-04-15 16:52 | 64.94650 | 74.58617 | 30283 ft | 469 kts | 220° |
| 2026-04-15 16:52 | 64.91961 | 74.54232 | 30504 ft | 471 kts | 220° |
| 2026-04-15 16:52 | 64.89257 | 74.49834 | 30732 ft | 473 kts | 220° |
| 2026-04-15 16:53 | 64.86543 | 74.45431 | 30955 ft | 475 kts | 220° |
| 2026-04-15 16:53 | 64.83814 | 74.41019 | 31166 ft | 477 kts | 220° |
| 2026-04-15 16:53 | 64.81077 | 74.36595 | 31385 ft | 479 kts | 220° |
| 2026-04-15 16:53 | 64.78337 | 74.32167 | 31661 ft | 478 kts | 220° |
| 2026-04-15 16:54 | 64.75591 | 74.27744 | 31963 ft | 478 kts | 220° |
| 2026-04-15 16:54 | 64.72851 | 74.23344 | 32256 ft | 478 kts | 220° |
| 2026-04-15 16:54 | 64.70104 | 74.18949 | 32547 ft | 478 kts | 219° |
| 2026-04-15 16:54 | 64.67359 | 74.14568 | 32833 ft | 478 kts | 219° |
| 2026-04-15 16:55 | 64.64616 | 74.10209 | 33132 ft | 478 kts | 219° |
| 2026-04-15 16:55 | 64.61868 | 74.05854 | 33425 ft | 477 kts | 219° |
| 2026-04-15 16:55 | 64.59117 | 74.01498 | 33704 ft | 477 kts | 219° |
| 2026-04-15 16:55 | 64.56410 | 73.97214 | 33994 ft | 477 kts | 219° |
| 2026-04-15 16:56 | 64.53658 | 73.92875 | 34276 ft | 477 kts | 219° |
| 2026-04-15 16:56 | 64.50912 | 73.88559 | 34513 ft | 477 kts | 219° |
| 2026-04-15 16:56 | 64.48160 | 73.84248 | 34744 ft | 477 kts | 219° |
| 2026-04-15 16:56 | 64.45408 | 73.79953 | 34974 ft | 477 kts | 219° |
| 2026-04-15 16:57 | 64.42653 | 73.75659 | 35201 ft | 477 kts | 219° |
| 2026-04-15 16:57 | 64.39907 | 73.71382 | 35416 ft | 476 kts | 218° |
| 2026-04-15 16:57 | 64.37155 | 73.67099 | 35627 ft | 476 kts | 218° |
| 2026-04-15 16:57 | 64.34407 | 73.62830 | 35838 ft | 476 kts | 218° |
| 2026-04-15 16:58 | 64.31657 | 73.58573 | 36038 ft | 476 kts | 218° |
| 2026-04-15 16:58 | 64.28911 | 73.54337 | 36212 ft | 476 kts | 218° |
| 2026-04-15 16:58 | 64.26164 | 73.50119 | 36269 ft | 473 kts | 218° |
| 2026-04-15 16:59 | 64.20705 | 73.41776 | 36268 ft | 470 kts | 218° |
| 2026-04-15 16:59 | 64.15267 | 73.33495 | 36267 ft | 469 kts | 218° |
| 2026-04-15 17:00 | 64.09825 | 73.25240 | 36267 ft | 468 kts | 218° |
| 2026-04-15 17:00 | 64.04397 | 73.17026 | 36271 ft | 468 kts | 218° |
| 2026-04-15 17:01 | 63.98959 | 73.08860 | 36267 ft | 468 kts | 217° |
| 2026-04-15 17:01 | 63.94436 | 73.02101 | 36270 ft | 468 kts | 217° |
| 2026-04-15 17:02 | 63.88706 | 72.94969 | 36263 ft | 472 kts | 210° |
| 2026-04-15 17:02 | 63.82825 | 72.88363 | 36273 ft | 472 kts | 210° |
| 2026-04-15 17:03 | 63.76936 | 72.81806 | 36283 ft | 471 kts | 210° |
| 2026-04-15 17:03 | 63.71051 | 72.75258 | 36285 ft | 471 kts | 210° |
| 2026-04-15 17:04 | 63.65206 | 72.68787 | 36287 ft | 471 kts | 210° |
| 2026-04-15 17:04 | 63.59322 | 72.62313 | 36286 ft | 471 kts | 210° |
| 2026-04-15 17:05 | 63.53439 | 72.55852 | 36291 ft | 470 kts | 209° |
| 2026-04-15 17:05 | 63.47561 | 72.49433 | 36291 ft | 470 kts | 209° |
| 2026-04-15 17:06 | 63.41679 | 72.43041 | 36289 ft | 470 kts | 209° |
| 2026-04-15 17:06 | 63.35798 | 72.36685 | 36291 ft | 470 kts | 209° |
| 2026-04-15 17:07 | 63.29912 | 72.30358 | 36295 ft | 470 kts | 209° |
| 2026-04-15 17:07 | 63.24027 | 72.24042 | 36290 ft | 469 kts | 209° |
| 2026-04-15 17:08 | 63.18142 | 72.17762 | 36292 ft | 469 kts | 209° |
| 2026-04-15 17:08 | 63.12261 | 72.11502 | 36288 ft | 469 kts | 209° |
| 2026-04-15 17:09 | 63.06383 | 72.05272 | 36295 ft | 469 kts | 208° |
| 2026-04-15 17:09 | 63.00490 | 71.99083 | 36294 ft | 469 kts | 208° |
| 2026-04-15 17:10 | 62.94599 | 71.92928 | 36297 ft | 469 kts | 208° |
| 2026-04-15 17:10 | 62.88700 | 71.86779 | 36296 ft | 469 kts | 208° |
| 2026-04-15 17:11 | 62.82810 | 71.80661 | 36297 ft | 469 kts | 208° |
| 2026-04-15 17:11 | 62.76914 | 71.74556 | 36294 ft | 468 kts | 208° |
| 2026-04-15 17:12 | 62.68118 | 71.65509 | 36294 ft | 468 kts | 208° |
| 2026-04-15 17:12 | 62.62225 | 71.59492 | 36291 ft | 467 kts | 208° |
| 2026-04-15 17:13 | 62.56339 | 71.53504 | 36291 ft | 467 kts | 208° |
| 2026-04-15 17:13 | 62.50448 | 71.47534 | 36291 ft | 467 kts | 208° |
| 2026-04-15 17:14 | 62.44554 | 71.41594 | 36296 ft | 467 kts | 208° |
| 2026-04-15 17:14 | 62.38656 | 71.35659 | 36295 ft | 467 kts | 208° |
| 2026-04-15 17:15 | 62.32758 | 71.29767 | 36299 ft | 467 kts | 207° |
| 2026-04-15 17:15 | 62.26860 | 71.23897 | 36295 ft | 467 kts | 207° |
| 2026-04-15 17:16 | 62.20957 | 71.18046 | 36300 ft | 467 kts | 207° |
| 2026-04-15 17:16 | 62.15058 | 71.12217 | 36300 ft | 467 kts | 207° |
| 2026-04-15 17:17 | 62.09152 | 71.06416 | 36304 ft | 467 kts | 207° |
| 2026-04-15 17:17 | 62.03276 | 71.00667 | 36309 ft | 468 kts | 207° |
| 2026-04-15 17:18 | 61.97792 | 70.93471 | 36310 ft | 460 kts | 225° |
| 2026-04-15 17:18 | 61.93126 | 70.84246 | 36306 ft | 458 kts | 227° |
| 2026-04-15 17:19 | 61.88464 | 70.75012 | 36305 ft | 458 kts | 226° |
| 2026-04-15 17:19 | 61.83789 | 70.65829 | 36305 ft | 459 kts | 226° |
| 2026-04-15 17:20 | 61.79103 | 70.56668 | 36305 ft | 459 kts | 226° |
| 2026-04-15 17:20 | 61.74403 | 70.47497 | 36306 ft | 459 kts | 226° |
| 2026-04-15 17:21 | 61.69729 | 70.38429 | 36319 ft | 459 kts | 226° |
| 2026-04-15 17:21 | 61.65025 | 70.29328 | 36326 ft | 459 kts | 226° |
| 2026-04-15 17:22 | 61.60316 | 70.20247 | 36314 ft | 459 kts | 226° |
| 2026-04-15 17:22 | 61.55596 | 70.11199 | 36311 ft | 460 kts | 226° |
| 2026-04-15 17:23 | 61.50864 | 70.02191 | 36309 ft | 460 kts | 226° |
| 2026-04-15 17:23 | 61.46123 | 69.93192 | 36312 ft | 460 kts | 226° |
| 2026-04-15 17:24 | 61.41384 | 69.84212 | 36317 ft | 460 kts | 226° |
| 2026-04-15 17:24 | 61.36640 | 69.75261 | 36316 ft | 460 kts | 226° |
| 2026-04-15 17:25 | 61.31906 | 69.66325 | 36313 ft | 459 kts | 226° |
| 2026-04-15 17:25 | 61.27187 | 69.57362 | 36315 ft | 459 kts | 226° |
| 2026-04-15 17:26 | 61.22458 | 69.48423 | 36314 ft | 460 kts | 226° |
| 2026-04-15 17:26 | 61.17745 | 69.39579 | 36314 ft | 460 kts | 226° |
| 2026-04-15 17:27 | 61.12994 | 69.30693 | 36318 ft | 460 kts | 226° |
| 2026-04-15 17:27 | 61.08235 | 69.21825 | 36317 ft | 461 kts | 226° |
| 2026-04-15 17:28 | 61.03200 | 69.13604 | 36320 ft | 467 kts | 213° |
| 2026-04-15 17:28 | 61.00253 | 69.10738 | 36321 ft | 471 kts | 202° |
| 2026-04-15 17:28 | 60.97131 | 69.08665 | 36320 ft | 472 kts | 200° |
| 2026-04-15 17:29 | 60.90865 | 69.04606 | 36321 ft | 472 kts | 200° |
| 2026-04-15 17:29 | 60.84597 | 69.00533 | 36322 ft | 472 kts | 200° |
| 2026-04-15 17:30 | 60.78321 | 68.96468 | 36329 ft | 473 kts | 200° |
| 2026-04-15 17:30 | 60.72048 | 68.92425 | 36323 ft | 473 kts | 200° |
| 2026-04-15 17:31 | 60.65766 | 68.88393 | 36325 ft | 474 kts | 200° |
| 2026-04-15 17:31 | 60.59470 | 68.84385 | 36324 ft | 474 kts | 200° |
| 2026-04-15 17:32 | 60.53177 | 68.80346 | 36337 ft | 474 kts | 200° |
| 2026-04-15 17:32 | 60.46914 | 68.76159 | 36341 ft | 474 kts | 202° |
| 2026-04-15 17:33 | 60.40798 | 68.71478 | 36343 ft | 473 kts | 204° |
| 2026-04-15 17:33 | 60.34670 | 68.66639 | 36335 ft | 473 kts | 204° |
| 2026-04-15 17:34 | 60.28506 | 68.61930 | 36336 ft | 473 kts | 203° |
| 2026-04-15 17:34 | 60.22327 | 68.57345 | 36343 ft | 474 kts | 203° |
| 2026-04-15 17:35 | 60.16141 | 68.52759 | 36350 ft | 474 kts | 203° |
| 2026-04-15 17:35 | 60.09959 | 68.48163 | 36354 ft | 474 kts | 203° |
| 2026-04-15 17:36 | 60.03775 | 68.43584 | 36354 ft | 474 kts | 203° |
| 2026-04-15 17:36 | 59.97585 | 68.39031 | 36361 ft | 474 kts | 204° |
| 2026-04-15 17:37 | 59.91952 | 68.32570 | 36358 ft | 463 kts | 224° |
| 2026-04-15 17:37 | 59.87755 | 68.23118 | 36355 ft | 452 kts | 240° |
| 2026-04-15 17:38 | 59.84156 | 68.12829 | 36347 ft | 453 kts | 240° |
| 2026-04-15 17:38 | 59.80523 | 68.02595 | 36346 ft | 453 kts | 240° |
| 2026-04-15 17:39 | 59.76882 | 67.92365 | 36348 ft | 454 kts | 240° |
| 2026-04-15 17:39 | 59.73257 | 67.82213 | 36352 ft | 454 kts | 239° |
| 2026-04-15 17:40 | 59.69597 | 67.72023 | 36361 ft | 454 kts | 239° |
| 2026-04-15 17:40 | 59.65923 | 67.61836 | 36356 ft | 455 kts | 239° |
| 2026-04-15 17:41 | 59.62245 | 67.51668 | 36363 ft | 455 kts | 239° |
| 2026-04-15 17:41 | 59.58553 | 67.41509 | 36361 ft | 455 kts | 239° |
| 2026-04-15 17:42 | 59.54855 | 67.31381 | 36367 ft | 455 kts | 239° |
| 2026-04-15 17:42 | 59.51151 | 67.21285 | 36364 ft | 455 kts | 239° |
| 2026-04-15 17:43 | 59.47470 | 67.11264 | 36364 ft | 455 kts | 239° |
| 2026-04-15 17:43 | 59.43755 | 67.01208 | 36361 ft | 455 kts | 239° |
| 2026-04-15 17:44 | 59.40032 | 66.91166 | 36363 ft | 455 kts | 239° |
| 2026-04-15 17:44 | 59.36288 | 66.81152 | 36364 ft | 455 kts | 239° |
| 2026-04-15 17:45 | 59.32598 | 66.71090 | 36368 ft | 454 kts | 240° |
| 2026-04-15 17:45 | 59.28968 | 66.60967 | 36371 ft | 454 kts | 240° |
| 2026-04-15 17:46 | 59.25325 | 66.50876 | 36372 ft | 454 kts | 240° |
| 2026-04-15 17:46 | 59.21660 | 66.40825 | 36370 ft | 454 kts | 240° |
| 2026-04-15 17:47 | 59.17977 | 66.30815 | 36369 ft | 454 kts | 239° |
| 2026-04-15 17:47 | 59.14289 | 66.20829 | 36369 ft | 454 kts | 240° |
| 2026-04-15 17:48 | 59.10601 | 66.10845 | 36365 ft | 454 kts | 239° |
| 2026-04-15 17:48 | 59.06906 | 66.00886 | 36364 ft | 454 kts | 239° |
| 2026-04-15 17:49 | 59.03194 | 65.90956 | 36360 ft | 454 kts | 239° |
| 2026-04-15 17:49 | 58.99470 | 65.81045 | 36363 ft | 454 kts | 239° |
| 2026-04-15 17:50 | 58.95750 | 65.71156 | 36362 ft | 454 kts | 239° |
| 2026-04-15 17:50 | 58.92049 | 65.61338 | 36369 ft | 454 kts | 239° |
| 2026-04-15 17:51 | 58.88304 | 65.51476 | 36368 ft | 454 kts | 239° |
| 2026-04-15 17:51 | 58.84555 | 65.41655 | 36367 ft | 454 kts | 239° |
| 2026-04-15 17:52 | 58.80802 | 65.31846 | 36369 ft | 454 kts | 239° |
| 2026-04-15 17:52 | 58.77040 | 65.22060 | 36370 ft | 454 kts | 239° |
| 2026-04-15 17:53 | 58.73907 | 65.13940 | 36372 ft | 454 kts | 239° |
| 2026-04-15 17:53 | 58.69525 | 65.02622 | 36367 ft | 454 kts | 239° |
| 2026-04-15 17:54 | 58.65743 | 64.92902 | 36367 ft | 454 kts | 239° |
| 2026-04-15 17:54 | 58.61954 | 64.83229 | 36368 ft | 453 kts | 239° |
| 2026-04-15 17:55 | 58.58764 | 64.75151 | 36366 ft | 454 kts | 238° |
| 2026-04-15 17:55 | 58.54911 | 64.65653 | 36362 ft | 454 kts | 238° |
| 2026-04-15 17:56 | 58.51009 | 64.56138 | 36363 ft | 454 kts | 238° |
| 2026-04-15 17:56 | 58.47110 | 64.46626 | 36371 ft | 454 kts | 238° |
| 2026-04-15 17:57 | 58.43204 | 64.37120 | 36379 ft | 455 kts | 238° |
| 2026-04-15 17:57 | 58.39289 | 64.27644 | 36382 ft | 455 kts | 238° |
| 2026-04-15 17:58 | 58.35372 | 64.18181 | 36381 ft | 454 kts | 238° |
| 2026-04-15 17:58 | 58.31449 | 64.08747 | 36377 ft | 454 kts | 238° |
| 2026-04-15 17:59 | 58.27544 | 63.99414 | 36375 ft | 454 kts | 237° |
| 2026-04-15 17:59 | 58.23519 | 63.90162 | 36374 ft | 455 kts | 236° |
| 2026-04-15 18:00 | 58.19388 | 63.81054 | 36373 ft | 455 kts | 235° |
| 2026-04-15 18:00 | 58.15258 | 63.71975 | 36371 ft | 455 kts | 236° |
| 2026-04-15 18:01 | 58.11144 | 63.62880 | 36373 ft | 454 kts | 236° |
| 2026-04-15 18:01 | 58.07077 | 63.53758 | 36366 ft | 453 kts | 237° |
| 2026-04-15 18:02 | 58.03072 | 63.44586 | 36363 ft | 452 kts | 237° |
| 2026-04-15 18:02 | 57.99060 | 63.35425 | 36364 ft | 453 kts | 237° |
| 2026-04-15 18:03 | 57.95020 | 63.26324 | 36370 ft | 453 kts | 237° |
| 2026-04-15 18:03 | 57.90987 | 63.17307 | 36370 ft | 453 kts | 236° |
| 2026-04-15 18:04 | 57.86928 | 63.08240 | 36371 ft | 453 kts | 237° |
| 2026-04-15 18:04 | 57.82873 | 62.99183 | 36374 ft | 453 kts | 237° |
| 2026-04-15 18:05 | 57.78812 | 62.90146 | 36373 ft | 453 kts | 236° |
| 2026-04-15 18:05 | 57.74731 | 62.81146 | 36370 ft | 453 kts | 236° |
| 2026-04-15 18:06 | 57.72688 | 62.76654 | 36029 ft | 453 kts | 237° |
| 2026-04-15 18:06 | 57.70650 | 62.72176 | 35534 ft | 450 kts | 237° |
| 2026-04-15 18:06 | 57.68613 | 62.67734 | 35053 ft | 448 kts | 237° |
| 2026-04-15 18:06 | 57.66589 | 62.63345 | 34571 ft | 445 kts | 237° |
| 2026-04-15 18:07 | 57.64584 | 62.59000 | 33742 ft | 449 kts | 238° |
| 2026-04-15 18:07 | 57.62557 | 62.54628 | 33289 ft | 443 kts | 238° |
| 2026-04-15 18:07 | 57.60528 | 62.50256 | 32198 ft | 451 kts | 238° |
| 2026-04-15 18:07 | 57.58460 | 62.45783 | 31357 ft | 455 kts | 238° |
| 2026-04-15 18:08 | 57.56420 | 62.41410 | 30758 ft | 442 kts | 239° |
| 2026-04-15 18:08 | 57.54402 | 62.37095 | 30231 ft | 439 kts | 239° |
| 2026-04-15 18:08 | 57.52410 | 62.32842 | 29754 ft | 432 kts | 239° |
| 2026-04-15 18:08 | 57.50444 | 62.28655 | 29288 ft | 426 kts | 239° |
| 2026-04-15 18:09 | 57.48504 | 62.24523 | 28827 ft | 421 kts | 239° |
| 2026-04-15 18:09 | 57.46593 | 62.20449 | 28375 ft | 416 kts | 239° |
| 2026-04-15 18:09 | 57.44705 | 62.16421 | 27930 ft | 411 kts | 239° |
| 2026-04-15 18:09 | 57.42833 | 62.12432 | 27497 ft | 407 kts | 239° |
| 2026-04-15 18:10 | 57.40980 | 62.08490 | 27066 ft | 404 kts | 239° |
| 2026-04-15 18:10 | 57.39140 | 62.04586 | 26640 ft | 400 kts | 239° |
| 2026-04-15 18:10 | 57.37312 | 62.00720 | 26225 ft | 396 kts | 238° |
| 2026-04-15 18:10 | 57.35504 | 61.96902 | 25817 ft | 393 kts | 238° |
| 2026-04-15 18:11 | 57.33752 | 61.93080 | 25407 ft | 384 kts | 244° |
| 2026-04-15 18:11 | 57.32327 | 61.89006 | 25007 ft | 374 kts | 249° |
| 2026-04-15 18:11 | 57.30974 | 61.84915 | 24634 ft | 372 kts | 249° |
| 2026-04-15 18:11 | 57.29644 | 61.80915 | 24276 ft | 370 kts | 249° |
| 2026-04-15 18:12 | 57.28292 | 61.76874 | 23908 ft | 368 kts | 249° |
| 2026-04-15 18:12 | 57.26943 | 61.72856 | 23479 ft | 366 kts | 248° |
| 2026-04-15 18:12 | 57.25603 | 61.68872 | 23055 ft | 364 kts | 248° |
| 2026-04-15 18:12 | 57.24269 | 61.64912 | 22638 ft | 362 kts | 248° |
| 2026-04-15 18:13 | 57.22943 | 61.60982 | 22228 ft | 360 kts | 248° |
| 2026-04-15 18:13 | 57.21624 | 61.57079 | 21826 ft | 358 kts | 248° |
| 2026-04-15 18:13 | 57.20308 | 61.53193 | 21421 ft | 355 kts | 247° |
| 2026-04-15 18:14 | 57.17700 | 61.45507 | 20639 ft | 351 kts | 247° |
| 2026-04-15 18:14 | 57.16406 | 61.41697 | 20252 ft | 350 kts | 247° |
| 2026-04-15 18:14 | 57.15117 | 61.37913 | 19877 ft | 348 kts | 247° |
| 2026-04-15 18:14 | 57.13835 | 61.34155 | 19504 ft | 346 kts | 246° |
| 2026-04-15 18:15 | 57.12557 | 61.30416 | 19132 ft | 344 kts | 246° |
| 2026-04-15 18:15 | 57.11281 | 61.26698 | 18769 ft | 342 kts | 246° |
| 2026-04-15 18:15 | 57.10012 | 61.23007 | 18374 ft | 341 kts | 246° |
| 2026-04-15 18:15 | 57.08791 | 61.19301 | 17959 ft | 334 kts | 252° |
| 2026-04-15 18:16 | 57.07937 | 61.15406 | 17548 ft | 325 kts | 259° |
| 2026-04-15 18:16 | 57.07213 | 61.11536 | 17146 ft | 324 kts | 259° |
| 2026-04-15 18:16 | 57.06472 | 61.07631 | 16752 ft | 323 kts | 258° |
| 2026-04-15 18:16 | 57.05726 | 61.03750 | 16352 ft | 322 kts | 258° |
| 2026-04-15 18:17 | 57.04979 | 60.99875 | 15962 ft | 321 kts | 258° |
| 2026-04-15 18:17 | 57.04236 | 60.96014 | 15580 ft | 320 kts | 258° |
| 2026-04-15 18:17 | 57.03498 | 60.92173 | 15202 ft | 319 kts | 257° |
| 2026-04-15 18:17 | 57.02760 | 60.88339 | 14828 ft | 318 kts | 257° |
| 2026-04-15 18:18 | 57.02021 | 60.84513 | 14455 ft | 317 kts | 257° |
| 2026-04-15 18:18 | 57.01282 | 60.80702 | 14085 ft | 317 kts | 256° |
| 2026-04-15 18:18 | 57.00543 | 60.76901 | 13664 ft | 316 kts | 256° |
| 2026-04-15 18:18 | 56.99809 | 60.73113 | 13255 ft | 314 kts | 256° |
| 2026-04-15 18:19 | 56.99209 | 60.69303 | 12859 ft | 308 kts | 266° |
| 2026-04-15 18:19 | 56.99087 | 60.65449 | 12461 ft | 299 kts | 278° |
| 2026-04-15 18:19 | 56.99196 | 60.61656 | 12072 ft | 298 kts | 278° |
| 2026-04-15 18:19 | 56.99294 | 60.57872 | 11685 ft | 296 kts | 278° |
| 2026-04-15 18:20 | 56.99384 | 60.54103 | 11303 ft | 295 kts | 278° |
| 2026-04-15 18:20 | 56.99474 | 60.50348 | 10925 ft | 294 kts | 277° |
| 2026-04-15 18:20 | 56.99561 | 60.46608 | 10554 ft | 293 kts | 277° |
| 2026-04-15 18:20 | 56.99647 | 60.42883 | 10179 ft | 291 kts | 277° |
| 2026-04-15 18:21 | 56.99731 | 60.39187 | 9793 ft | 289 kts | 277° |
| 2026-04-15 18:21 | 56.99805 | 60.35660 | 9646 ft | 270 kts | 275° |
| 2026-04-15 18:21 | 56.99572 | 60.32318 | 9425 ft | 261 kts | 257° |
| 2026-04-15 18:21 | 56.98829 | 60.29295 | 9351 ft | 261 kts | 245° |
| 2026-04-15 18:22 | 56.97839 | 60.26488 | 9357 ft | 265 kts | 229° |
| 2026-04-15 18:22 | 56.96426 | 60.24287 | 9360 ft | 268 kts | 220° |
| 2026-04-15 18:22 | 56.94949 | 60.22194 | 9359 ft | 269 kts | 217° |
| 2026-04-15 18:22 | 56.93293 | 60.20580 | 9365 ft | 270 kts | 207° |
| 2026-04-15 18:23 | 56.91597 | 60.19088 | 9257 ft | 270 kts | 207° |
| 2026-04-15 18:23 | 56.89907 | 60.17590 | 9129 ft | 269 kts | 207° |
| 2026-04-15 18:23 | 56.88223 | 60.16096 | 8987 ft | 268 kts | 207° |
| 2026-04-15 18:23 | 56.86548 | 60.14615 | 8859 ft | 267 kts | 207° |
| 2026-04-15 18:24 | 56.84874 | 60.13140 | 8724 ft | 267 kts | 206° |
| 2026-04-15 18:24 | 56.83205 | 60.11673 | 8593 ft | 266 kts | 206° |
| 2026-04-15 18:24 | 56.81541 | 60.10217 | 8459 ft | 265 kts | 206° |
| 2026-04-15 18:24 | 56.79880 | 60.08765 | 8348 ft | 264 kts | 206° |
| 2026-04-15 18:25 | 56.78225 | 60.07324 | 8357 ft | 264 kts | 206° |
| 2026-04-15 18:25 | 56.76493 | 60.06239 | 8356 ft | 264 kts | 189° |
| 2026-04-15 18:25 | 56.74672 | 60.06106 | 8353 ft | 262 kts | 171° |
| 2026-04-15 18:25 | 56.72926 | 60.06923 | 8361 ft | 258 kts | 153° |
| 2026-04-15 18:26 | 56.71446 | 60.08682 | 8356 ft | 252 kts | 130° |
| 2026-04-15 18:26 | 56.70464 | 60.11249 | 8360 ft | 245 kts | 107° |
| 2026-04-15 18:26 | 56.70101 | 60.14208 | 8264 ft | 237 kts | 86° |
| 2026-04-15 18:26 | 56.70365 | 60.17113 | 8136 ft | 231 kts | 65° |
| 2026-04-15 18:27 | 56.71161 | 60.19592 | 8005 ft | 226 kts | 46° |
| 2026-04-15 18:27 | 56.72314 | 60.21520 | 7875 ft | 225 kts | 39° |
| 2026-04-15 18:27 | 56.73496 | 60.23383 | 7617 ft | 224 kts | 40° |
| 2026-04-15 18:27 | 56.74664 | 60.25239 | 7306 ft | 225 kts | 40° |
| 2026-04-15 18:28 | 56.75836 | 60.27106 | 6978 ft | 223 kts | 40° |
| 2026-04-15 18:28 | 56.77004 | 60.28967 | 6637 ft | 222 kts | 40° |
| 2026-04-15 18:28 | 56.78165 | 60.30819 | 6285 ft | 222 kts | 41° |
| 2026-04-15 18:28 | 56.79325 | 60.32672 | 5952 ft | 221 kts | 41° |
| 2026-04-15 18:29 | 56.80316 | 60.34801 | 5607 ft | 221 kts | 64° |
| 2026-04-15 18:29 | 56.80610 | 60.37537 | 5280 ft | 224 kts | 94° |
| 2026-04-15 18:29 | 56.80068 | 60.40239 | 4692 ft | 235 kts | 128° |
| 2026-04-15 18:29 | 56.78903 | 60.42266 | 4172 ft | 230 kts | 137° |
| 2026-04-15 18:30 | 56.77717 | 60.44127 | 3900 ft | 218 kts | 137° |
| 2026-04-15 18:30 | 56.76589 | 60.45887 | 3761 ft | 209 kts | 137° |
| 2026-04-15 18:30 | 56.75688 | 60.47854 | 3651 ft | 197 kts | 115° |
| 2026-04-15 18:30 | 56.75289 | 60.50175 | 3459 ft | 191 kts | 94° |
| 2026-04-15 18:31 | 56.75205 | 60.52568 | 3246 ft | 187 kts | 93° |
| 2026-04-15 18:31 | 56.75116 | 60.54919 | 3043 ft | 185 kts | 93° |
| 2026-04-15 18:31 | 56.75026 | 60.57215 | 2882 ft | 178 kts | 93° |
| 2026-04-15 18:31 | 56.74942 | 60.59396 | 2765 ft | 165 kts | 93° |
| 2026-04-15 18:32 | 56.74865 | 60.61427 | 2615 ft | 157 kts | 93° |
| 2026-04-15 18:32 | 56.74794 | 60.63273 | 2450 ft | 140 kts | 93° |
| 2026-04-15 18:32 | 56.74729 | 60.64991 | 2266 ft | 133 kts | 93° |
| 2026-04-15 18:32 | 56.74665 | 60.66649 | 2086 ft | 130 kts | 93° |
| 2026-04-15 18:33 | 56.74603 | 60.68285 | 1887 ft | 130 kts | 93° |
| 2026-04-15 18:33 | 56.74539 | 60.69932 | 1699 ft | 131 kts | 93° |
| 2026-04-15 18:33 | 56.74475 | 60.71594 | 1492 ft | 132 kts | 92° |
| 2026-04-15 18:33 | 56.74410 | 60.73271 | 1322 ft | 133 kts | 92° |
| 2026-04-15 18:34 | 56.74348 | 60.74961 | 1122 ft | 134 kts | 92° |
| 2026-04-15 18:34 | 56.74282 | 60.76653 | 944 ft | 134 kts | 92° |
| 2026-04-15 18:34 | 56.74215 | 60.78344 | 788 ft | 133 kts | 92° |
| 2026-04-15 18:34 | 56.74158 | 60.79787 | 778 ft | 91 kts | 94° |
| 2026-04-15 18:35 | 56.74124 | 60.80630 | 777 ft | 50 kts | 94° |
| 2026-04-15 18:35 | 56.74100 | 60.81216 | 779 ft | 44 kts | 95° |
| 2026-04-15 18:35 | 56.74078 | 60.81761 | 775 ft | 43 kts | 93° |
| 2026-04-15 18:35 | 56.74097 | 60.82137 | 775 ft | 15 kts | 40° |
| 2026-04-15 18:36 | 56.74182 | 60.82162 | 780 ft | 12 kts | 4° |
| 2026-04-15 18:36 | 56.74286 | 60.82176 | 781 ft | 19 kts | 4° |
| 2026-04-15 18:36 | 56.74442 | 60.82198 | 782 ft | 26 kts | 5° |
| 2026-04-15 18:36 | 56.74589 | 60.82202 | 781 ft | 19 kts | 359° |
| 2026-04-15 18:37 | 56.74658 | 60.82099 | 781 ft | 14 kts | 273° |
| 2026-04-15 18:37 | 56.74659 | 60.81912 | 781 ft | 16 kts | 270° |
| 2026-04-15 18:37 | 56.74659 | 60.81688 | 781 ft | 19 kts | 269° |
| 2026-04-15 18:37 | 56.74659 | 60.81429 | 781 ft | 22 kts | 270° |
| 2026-04-15 18:38 | 56.74659 | 60.81134 | 781 ft | 24 kts | 270° |
| 2026-04-15 18:38 | 56.74660 | 60.80833 | 781 ft | 23 kts | 270° |
| 2026-04-15 18:38 | 56.74661 | 60.80545 | 781 ft | 22 kts | 270° |
| 2026-04-15 18:38 | 56.74661 | 60.80290 | 781 ft | 19 kts | 270° |
| 2026-04-15 18:39 | 56.74703 | 60.80132 | 781 ft | 16 kts | 354° |
| 2026-04-15 18:39 | 56.74813 | 60.80134 | 781 ft | 15 kts | 359° |
| 2026-04-15 18:39 | 56.74871 | 60.80054 | 781 ft | 8 kts | 325° |
| 2026-04-15 18:39 | 56.74920 | 60.80046 | 781 ft | 4 kts | 1° |
| 2026-04-15 18:40 | 56.74929 | 60.80046 | 781 ft | 0 kts | 359° |